sensor_id;sensor_type;location;lat;lon;timestamp;P1;durP1;ratioP1;P2;durP2;ratioP2
10315;SDS011;5203;48.976;8.306;2024-01-06T00:01:24;9.65;;;6.18;;
10315;SDS011;5203;48.976;8.306;2024-01-06T00:03:50;8.23;;;5.82;;
10315;SDS011;5203;48.976;8.306;2024-01-06T00:06:15;11.82;;;7.15;;
10315;SDS011;5203;48.976;8.306;2024-01-06T00:08:41;9.70;;;6.18;;
10315;SDS011;5203;48.976;8.306;2024-01-06T00:11:07;10.52;;;7.07;;
10315;SDS011;5203;48.976;8.306;2024-01-06T00:13:32;9.52;;;5.63;;
10315;SDS011;5203;48.976;8.306;2024-01-06T00:15:58;7.63;;;5.35;;
10315;SDS011;5203;48.976;8.306;2024-01-06T00:20:52;9.07;;;5.40;;
10315;SDS011;5203;48.976;8.306;2024-01-06T00:23:17;10.10;;;5.80;;
10315;SDS011;5203;48.976;8.306;2024-01-06T00:25:43;10.45;;;4.88;;
10315;SDS011;5203;48.976;8.306;2024-01-06T00:28:09;7.25;;;5.05;;
10315;SDS011;5203;48.976;8.306;2024-01-06T00:30:35;9.65;;;5.05;;
10315;SDS011;5203;48.976;8.306;2024-01-06T00:33:00;7.32;;;5.55;;
10315;SDS011;5203;48.976;8.306;2024-01-06T00:35:26;10.30;;;6.18;;
10315;SDS011;5203;48.976;8.306;2024-01-06T00:37:51;8.23;;;6.72;;
10315;SDS011;5203;48.976;8.306;2024-01-06T00:40:17;6.95;;;5.43;;
10315;SDS011;5203;48.976;8.306;2024-01-06T00:42:44;7.40;;;5.15;;
10315;SDS011;5203;48.976;8.306;2024-01-06T00:45:10;9.32;;;5.43;;
10315;SDS011;5203;48.976;8.306;2024-01-06T00:47:35;8.40;;;4.78;;
10315;SDS011;5203;48.976;8.306;2024-01-06T00:50:01;6.53;;;4.47;;
10315;SDS011;5203;48.976;8.306;2024-01-06T00:52:27;10.43;;;4.65;;
10315;SDS011;5203;48.976;8.306;2024-01-06T00:54:52;9.60;;;5.15;;
10315;SDS011;5203;48.976;8.306;2024-01-06T00:57:18;7.30;;;4.88;;
10315;SDS011;5203;48.976;8.306;2024-01-06T00:59:48;8.45;;;4.82;;
10315;SDS011;5203;48.976;8.306;2024-01-06T01:02:14;8.65;;;5.10;;
10315;SDS011;5203;48.976;8.306;2024-01-06T01:04:40;9.95;;;4.40;;
10315;SDS011;5203;48.976;8.306;2024-01-06T01:07:05;8.48;;;4.38;;
10315;SDS011;5203;48.976;8.306;2024-01-06T01:09:31;10.05;;;5.30;;
10315;SDS011;5203;48.976;8.306;2024-01-06T01:11:57;11.77;;;5.20;;
10315;SDS011;5203;48.976;8.306;2024-01-06T01:14:22;10.25;;;4.72;;
10315;SDS011;5203;48.976;8.306;2024-01-06T01:16:48;7.28;;;4.95;;
10315;SDS011;5203;48.976;8.306;2024-01-06T01:19:13;8.50;;;4.90;;
10315;SDS011;5203;48.976;8.306;2024-01-06T01:21:39;7.80;;;4.70;;
10315;SDS011;5203;48.976;8.306;2024-01-06T01:24:05;6.22;;;3.63;;
10315;SDS011;5203;48.976;8.306;2024-01-06T01:26:30;5.82;;;4.22;;
10315;SDS011;5203;48.976;8.306;2024-01-06T01:28:56;12.55;;;4.32;;
10315;SDS011;5203;48.976;8.306;2024-01-06T01:31:21;5.10;;;3.13;;
10315;SDS011;5203;48.976;8.306;2024-01-06T01:33:47;5.90;;;4.97;;
10315;SDS011;5203;48.976;8.306;2024-01-06T01:36:13;7.57;;;3.92;;
10315;SDS011;5203;48.976;8.306;2024-01-06T01:38:38;8.93;;;5.53;;
10315;SDS011;5203;48.976;8.306;2024-01-06T01:41:04;7.88;;;4.07;;
10315;SDS011;5203;48.976;8.306;2024-01-06T01:43:30;7.78;;;4.55;;
10315;SDS011;5203;48.976;8.306;2024-01-06T01:45:56;10.10;;;4.68;;
10315;SDS011;5203;48.976;8.306;2024-01-06T01:48:23;8.50;;;3.67;;
10315;SDS011;5203;48.976;8.306;2024-01-06T01:50:51;10.57;;;4.82;;
10315;SDS011;5203;48.976;8.306;2024-01-06T01:53:18;8.35;;;4.72;;
10315;SDS011;5203;48.976;8.306;2024-01-06T01:55:45;11.48;;;4.85;;
10315;SDS011;5203;48.976;8.306;2024-01-06T01:58:13;8.02;;;4.88;;
10315;SDS011;5203;48.976;8.306;2024-01-06T02:00:41;7.82;;;4.13;;
10315;SDS011;5203;48.976;8.306;2024-01-06T02:03:06;7.63;;;3.88;;
10315;SDS011;5203;48.976;8.306;2024-01-06T02:05:34;11.52;;;4.35;;
10315;SDS011;5203;48.976;8.306;2024-01-06T02:08:00;9.85;;;4.47;;
10315;SDS011;5203;48.976;8.306;2024-01-06T02:10:25;7.50;;;3.83;;
10315;SDS011;5203;48.976;8.306;2024-01-06T02:12:51;8.50;;;3.50;;
10315;SDS011;5203;48.976;8.306;2024-01-06T02:15:17;4.53;;;3.47;;
10315;SDS011;5203;48.976;8.306;2024-01-06T02:17:43;7.93;;;3.53;;
10315;SDS011;5203;48.976;8.306;2024-01-06T02:20:09;5.07;;;3.50;;
10315;SDS011;5203;48.976;8.306;2024-01-06T02:22:36;7.63;;;3.47;;
10315;SDS011;5203;48.976;8.306;2024-01-06T02:25:03;6.28;;;3.35;;
10315;SDS011;5203;48.976;8.306;2024-01-06T02:27:37;7.57;;;3.85;;
10315;SDS011;5203;48.976;8.306;2024-01-06T02:30:03;10.07;;;3.47;;
10315;SDS011;5203;48.976;8.306;2024-01-06T02:32:29;4.50;;;3.40;;
10315;SDS011;5203;48.976;8.306;2024-01-06T02:34:55;7.10;;;4.55;;
10315;SDS011;5203;48.976;8.306;2024-01-06T02:37:20;11.30;;;3.67;;
10315;SDS011;5203;48.976;8.306;2024-01-06T02:39:46;6.57;;;4.05;;
10315;SDS011;5203;48.976;8.306;2024-01-06T02:42:12;11.10;;;3.85;;
10315;SDS011;5203;48.976;8.306;2024-01-06T02:44:37;6.90;;;3.92;;
10315;SDS011;5203;48.976;8.306;2024-01-06T02:47:03;6.00;;;3.20;;
10315;SDS011;5203;48.976;8.306;2024-01-06T02:49:29;5.80;;;3.10;;
10315;SDS011;5203;48.976;8.306;2024-01-06T02:51:54;10.00;;;4.28;;
10315;SDS011;5203;48.976;8.306;2024-01-06T02:54:20;5.22;;;3.83;;
10315;SDS011;5203;48.976;8.306;2024-01-06T02:56:45;6.32;;;3.63;;
10315;SDS011;5203;48.976;8.306;2024-01-06T02:59:11;5.93;;;3.47;;
10315;SDS011;5203;48.976;8.306;2024-01-06T03:01:36;6.25;;;3.30;;
10315;SDS011;5203;48.976;8.306;2024-01-06T03:04:02;7.55;;;4.05;;
10315;SDS011;5203;48.976;8.306;2024-01-06T03:06:28;9.05;;;3.63;;
10315;SDS011;5203;48.976;8.306;2024-01-06T03:08:53;7.75;;;3.78;;
10315;SDS011;5203;48.976;8.306;2024-01-06T03:11:19;8.88;;;3.50;;
10315;SDS011;5203;48.976;8.306;2024-01-06T03:13:44;6.70;;;4.20;;
10315;SDS011;5203;48.976;8.306;2024-01-06T03:16:11;8.32;;;4.18;;
10315;SDS011;5203;48.976;8.306;2024-01-06T03:18:37;7.63;;;3.22;;
10315;SDS011;5203;48.976;8.306;2024-01-06T03:21:02;6.18;;;3.92;;
10315;SDS011;5203;48.976;8.306;2024-01-06T03:23:28;10.85;;;3.33;;
10315;SDS011;5203;48.976;8.306;2024-01-06T03:25:54;5.25;;;3.00;;
10315;SDS011;5203;48.976;8.306;2024-01-06T03:28:19;7.85;;;3.83;;
10315;SDS011;5203;48.976;8.306;2024-01-06T03:30:45;8.60;;;3.03;;
10315;SDS011;5203;48.976;8.306;2024-01-06T03:33:11;8.40;;;3.58;;
10315;SDS011;5203;48.976;8.306;2024-01-06T03:35:37;5.55;;;4.10;;
10315;SDS011;5203;48.976;8.306;2024-01-06T03:38:03;7.05;;;4.13;;
10315;SDS011;5203;48.976;8.306;2024-01-06T03:40:28;5.47;;;3.35;;
10315;SDS011;5203;48.976;8.306;2024-01-06T03:42:54;6.38;;;3.88;;
10315;SDS011;5203;48.976;8.306;2024-01-06T03:45:19;7.93;;;3.60;;
10315;SDS011;5203;48.976;8.306;2024-01-06T03:47:45;5.53;;;3.65;;
10315;SDS011;5203;48.976;8.306;2024-01-06T03:50:11;6.05;;;3.90;;
10315;SDS011;5203;48.976;8.306;2024-01-06T03:52:38;5.68;;;3.58;;
10315;SDS011;5203;48.976;8.306;2024-01-06T03:55:03;5.45;;;3.63;;
10315;SDS011;5203;48.976;8.306;2024-01-06T03:57:30;9.70;;;4.43;;
10315;SDS011;5203;48.976;8.306;2024-01-06T03:59:56;10.77;;;3.95;;
10315;SDS011;5203;48.976;8.306;2024-01-06T04:02:22;11.48;;;3.17;;
10315;SDS011;5203;48.976;8.306;2024-01-06T04:04:47;6.65;;;3.58;;
10315;SDS011;5203;48.976;8.306;2024-01-06T04:07:13;6.25;;;3.25;;
10315;SDS011;5203;48.976;8.306;2024-01-06T04:09:41;7.22;;;3.88;;
10315;SDS011;5203;48.976;8.306;2024-01-06T04:12:07;5.03;;;3.10;;
10315;SDS011;5203;48.976;8.306;2024-01-06T04:14:33;7.38;;;4.97;;
10315;SDS011;5203;48.976;8.306;2024-01-06T04:16:59;7.13;;;4.22;;
10315;SDS011;5203;48.976;8.306;2024-01-06T04:19:24;9.65;;;3.50;;
10315;SDS011;5203;48.976;8.306;2024-01-06T04:21:50;7.28;;;3.55;;
10315;SDS011;5203;48.976;8.306;2024-01-06T04:24:15;10.25;;;4.40;;
10315;SDS011;5203;48.976;8.306;2024-01-06T04:26:41;5.28;;;3.10;;
10315;SDS011;5203;48.976;8.306;2024-01-06T04:29:09;7.95;;;3.42;;
10315;SDS011;5203;48.976;8.306;2024-01-06T04:31:36;8.35;;;3.45;;
10315;SDS011;5203;48.976;8.306;2024-01-06T04:34:01;7.03;;;3.78;;
10315;SDS011;5203;48.976;8.306;2024-01-06T04:36:28;8.18;;;3.42;;
10315;SDS011;5203;48.976;8.306;2024-01-06T04:38:54;5.97;;;3.03;;
10315;SDS011;5203;48.976;8.306;2024-01-06T04:41:19;11.27;;;4.32;;
10315;SDS011;5203;48.976;8.306;2024-01-06T04:43:45;6.22;;;3.38;;
10315;SDS011;5203;48.976;8.306;2024-01-06T04:46:11;8.90;;;4.18;;
10315;SDS011;5203;48.976;8.306;2024-01-06T04:48:39;6.70;;;4.55;;
10315;SDS011;5203;48.976;8.306;2024-01-06T04:51:08;5.40;;;3.97;;
10315;SDS011;5203;48.976;8.306;2024-01-06T04:53:38;5.22;;;3.95;;
10315;SDS011;5203;48.976;8.306;2024-01-06T04:56:04;5.75;;;4.13;;
10315;SDS011;5203;48.976;8.306;2024-01-06T04:58:29;8.43;;;3.50;;
10315;SDS011;5203;48.976;8.306;2024-01-06T05:00:55;8.43;;;4.00;;
10315;SDS011;5203;48.976;8.306;2024-01-06T05:03:21;7.78;;;4.70;;
10315;SDS011;5203;48.976;8.306;2024-01-06T05:05:47;5.20;;;3.63;;
10315;SDS011;5203;48.976;8.306;2024-01-06T05:08:12;9.80;;;3.78;;
10315;SDS011;5203;48.976;8.306;2024-01-06T05:10:38;6.40;;;4.13;;
10315;SDS011;5203;48.976;8.306;2024-01-06T05:13:03;9.43;;;3.58;;
10315;SDS011;5203;48.976;8.306;2024-01-06T05:15:29;8.55;;;3.67;;
10315;SDS011;5203;48.976;8.306;2024-01-06T05:17:54;8.68;;;4.15;;
10315;SDS011;5203;48.976;8.306;2024-01-06T05:20:20;6.80;;;4.15;;
10315;SDS011;5203;48.976;8.306;2024-01-06T05:22:46;5.72;;;3.40;;
10315;SDS011;5203;48.976;8.306;2024-01-06T05:25:11;8.73;;;4.55;;
10315;SDS011;5203;48.976;8.306;2024-01-06T05:27:37;6.90;;;3.67;;
10315;SDS011;5203;48.976;8.306;2024-01-06T05:30:03;5.50;;;3.38;;
10315;SDS011;5203;48.976;8.306;2024-01-06T05:32:29;11.52;;;5.03;;
10315;SDS011;5203;48.976;8.306;2024-01-06T05:34:54;11.68;;;3.92;;
10315;SDS011;5203;48.976;8.306;2024-01-06T05:37:20;8.35;;;4.05;;
10315;SDS011;5203;48.976;8.306;2024-01-06T05:39:46;6.53;;;4.38;;
10315;SDS011;5203;48.976;8.306;2024-01-06T05:42:12;6.10;;;3.88;;
10315;SDS011;5203;48.976;8.306;2024-01-06T05:44:39;6.47;;;3.08;;
10315;SDS011;5203;48.976;8.306;2024-01-06T05:47:05;6.53;;;3.15;;
10315;SDS011;5203;48.976;8.306;2024-01-06T05:49:31;9.55;;;4.55;;
10315;SDS011;5203;48.976;8.306;2024-01-06T05:51:57;10.10;;;4.10;;
10315;SDS011;5203;48.976;8.306;2024-01-06T05:54:23;5.80;;;3.90;;
10315;SDS011;5203;48.976;8.306;2024-01-06T05:56:48;6.18;;;4.18;;
10315;SDS011;5203;48.976;8.306;2024-01-06T05:59:14;9.48;;;4.57;;
10315;SDS011;5203;48.976;8.306;2024-01-06T06:01:39;5.65;;;3.42;;
10315;SDS011;5203;48.976;8.306;2024-01-06T06:04:05;5.80;;;3.13;;
10315;SDS011;5203;48.976;8.306;2024-01-06T06:06:31;6.70;;;3.75;;
10315;SDS011;5203;48.976;8.306;2024-01-06T06:08:58;8.23;;;4.30;;
10315;SDS011;5203;48.976;8.306;2024-01-06T06:11:23;6.15;;;3.78;;
10315;SDS011;5203;48.976;8.306;2024-01-06T06:13:49;6.47;;;3.85;;
10315;SDS011;5203;48.976;8.306;2024-01-06T06:16:14;7.25;;;3.72;;
10315;SDS011;5203;48.976;8.306;2024-01-06T06:18:40;11.00;;;3.88;;
10315;SDS011;5203;48.976;8.306;2024-01-06T06:21:07;9.48;;;4.75;;
10315;SDS011;5203;48.976;8.306;2024-01-06T06:23:33;5.72;;;3.88;;
10315;SDS011;5203;48.976;8.306;2024-01-06T06:25:59;6.85;;;4.25;;
10315;SDS011;5203;48.976;8.306;2024-01-06T06:28:30;8.15;;;4.22;;
10315;SDS011;5203;48.976;8.306;2024-01-06T06:30:55;10.10;;;5.13;;
10315;SDS011;5203;48.976;8.306;2024-01-06T06:33:21;7.75;;;3.67;;
10315;SDS011;5203;48.976;8.306;2024-01-06T06:35:47;10.73;;;6.65;;
10315;SDS011;5203;48.976;8.306;2024-01-06T06:38:12;7.15;;;3.97;;
10315;SDS011;5203;48.976;8.306;2024-01-06T06:40:38;8.13;;;3.10;;
10315;SDS011;5203;48.976;8.306;2024-01-06T06:43:04;7.47;;;4.50;;
10315;SDS011;5203;48.976;8.306;2024-01-06T06:45:30;6.45;;;4.22;;
10315;SDS011;5203;48.976;8.306;2024-01-06T06:47:55;6.43;;;3.58;;
10315;SDS011;5203;48.976;8.306;2024-01-06T06:50:21;8.00;;;4.05;;
10315;SDS011;5203;48.976;8.306;2024-01-06T06:52:46;6.82;;;3.92;;
10315;SDS011;5203;48.976;8.306;2024-01-06T06:55:12;8.23;;;4.10;;
10315;SDS011;5203;48.976;8.306;2024-01-06T06:57:38;12.35;;;4.18;;
10315;SDS011;5203;48.976;8.306;2024-01-06T07:00:04;7.53;;;4.13;;
10315;SDS011;5203;48.976;8.306;2024-01-06T07:02:32;12.35;;;5.00;;
10315;SDS011;5203;48.976;8.306;2024-01-06T07:04:58;6.07;;;3.70;;
10315;SDS011;5203;48.976;8.306;2024-01-06T07:07:24;8.68;;;4.32;;
10315;SDS011;5203;48.976;8.306;2024-01-06T07:09:50;7.60;;;4.55;;
10315;SDS011;5203;48.976;8.306;2024-01-06T07:12:15;6.72;;;4.25;;
10315;SDS011;5203;48.976;8.306;2024-01-06T07:14:41;8.32;;;5.07;;
10315;SDS011;5203;48.976;8.306;2024-01-06T07:17:07;8.45;;;4.90;;
10315;SDS011;5203;48.976;8.306;2024-01-06T07:19:34;10.70;;;4.97;;
10315;SDS011;5203;48.976;8.306;2024-01-06T07:22:00;8.15;;;4.72;;
10315;SDS011;5203;48.976;8.306;2024-01-06T07:24:26;7.57;;;4.75;;
10315;SDS011;5203;48.976;8.306;2024-01-06T07:26:52;7.90;;;4.20;;
10315;SDS011;5203;48.976;8.306;2024-01-06T07:29:17;10.13;;;4.72;;
10315;SDS011;5203;48.976;8.306;2024-01-06T07:31:44;8.10;;;4.75;;
10315;SDS011;5203;48.976;8.306;2024-01-06T07:34:09;9.10;;;4.97;;
10315;SDS011;5203;48.976;8.306;2024-01-06T07:36:35;8.43;;;4.88;;
10315;SDS011;5203;48.976;8.306;2024-01-06T07:39:01;8.23;;;5.07;;
10315;SDS011;5203;48.976;8.306;2024-01-06T07:41:28;7.05;;;4.28;;
10315;SDS011;5203;48.976;8.306;2024-01-06T07:43:55;11.55;;;4.70;;
10315;SDS011;5203;48.976;8.306;2024-01-06T07:46:21;9.40;;;4.65;;
10315;SDS011;5203;48.976;8.306;2024-01-06T07:48:47;10.40;;;4.60;;
10315;SDS011;5203;48.976;8.306;2024-01-06T07:51:12;8.70;;;5.07;;
10315;SDS011;5203;48.976;8.306;2024-01-06T07:53:39;8.60;;;4.78;;
10315;SDS011;5203;48.976;8.306;2024-01-06T07:56:04;11.35;;;4.97;;
10315;SDS011;5203;48.976;8.306;2024-01-06T07:58:30;6.57;;;4.72;;
10315;SDS011;5203;48.976;8.306;2024-01-06T08:00:57;7.28;;;4.70;;
10315;SDS011;5203;48.976;8.306;2024-01-06T08:03:23;8.90;;;3.95;;
10315;SDS011;5203;48.976;8.306;2024-01-06T08:05:50;7.40;;;4.88;;
10315;SDS011;5203;48.976;8.306;2024-01-06T08:08:15;7.35;;;5.25;;
10315;SDS011;5203;48.976;8.306;2024-01-06T08:10:42;7.93;;;4.78;;
10315;SDS011;5203;48.976;8.306;2024-01-06T08:13:08;9.15;;;4.75;;
10315;SDS011;5203;48.976;8.306;2024-01-06T08:15:33;6.95;;;4.68;;
10315;SDS011;5203;48.976;8.306;2024-01-06T08:17:59;9.93;;;5.30;;
10315;SDS011;5203;48.976;8.306;2024-01-06T08:20:25;7.47;;;5.38;;
10315;SDS011;5203;48.976;8.306;2024-01-06T08:22:51;12.45;;;5.88;;
10315;SDS011;5203;48.976;8.306;2024-01-06T08:25:16;10.85;;;5.53;;
10315;SDS011;5203;48.976;8.306;2024-01-06T08:27:42;12.15;;;5.85;;
10315;SDS011;5203;48.976;8.306;2024-01-06T08:30:09;8.65;;;5.28;;
10315;SDS011;5203;48.976;8.306;2024-01-06T08:32:34;8.27;;;5.20;;
10315;SDS011;5203;48.976;8.306;2024-01-06T08:35:00;12.40;;;5.68;;
10315;SDS011;5203;48.976;8.306;2024-01-06T08:37:26;10.30;;;5.88;;
10315;SDS011;5203;48.976;8.306;2024-01-06T08:39:52;11.13;;;6.80;;
10315;SDS011;5203;48.976;8.306;2024-01-06T08:42:17;11.35;;;5.25;;
10315;SDS011;5203;48.976;8.306;2024-01-06T08:44:43;10.73;;;5.85;;
10315;SDS011;5203;48.976;8.306;2024-01-06T08:47:09;11.05;;;6.18;;
10315;SDS011;5203;48.976;8.306;2024-01-06T08:49:35;10.65;;;6.20;;
10315;SDS011;5203;48.976;8.306;2024-01-06T08:52:01;10.52;;;4.93;;
10315;SDS011;5203;48.976;8.306;2024-01-06T08:54:26;14.35;;;7.00;;
10315;SDS011;5203;48.976;8.306;2024-01-06T08:56:52;8.80;;;5.97;;
10315;SDS011;5203;48.976;8.306;2024-01-06T08:59:18;11.77;;;6.00;;
10315;SDS011;5203;48.976;8.306;2024-01-06T09:01:45;10.82;;;6.45;;
10315;SDS011;5203;48.976;8.306;2024-01-06T09:04:10;11.85;;;5.97;;
10315;SDS011;5203;48.976;8.306;2024-01-06T09:06:37;14.73;;;6.95;;
10315;SDS011;5203;48.976;8.306;2024-01-06T09:09:03;12.88;;;7.00;;
10315;SDS011;5203;48.976;8.306;2024-01-06T09:11:29;15.93;;;6.53;;
10315;SDS011;5203;48.976;8.306;2024-01-06T09:13:54;12.30;;;6.15;;
10315;SDS011;5203;48.976;8.306;2024-01-06T09:16:20;10.32;;;7.05;;
10315;SDS011;5203;48.976;8.306;2024-01-06T09:18:46;16.33;;;9.70;;
10315;SDS011;5203;48.976;8.306;2024-01-06T09:21:14;12.43;;;8.00;;
10315;SDS011;5203;48.976;8.306;2024-01-06T09:23:40;13.00;;;6.60;;
10315;SDS011;5203;48.976;8.306;2024-01-06T09:26:06;14.35;;;8.05;;
10315;SDS011;5203;48.976;8.306;2024-01-06T09:28:32;10.23;;;6.80;;
10315;SDS011;5203;48.976;8.306;2024-01-06T09:30:57;14.32;;;9.10;;
10315;SDS011;5203;48.976;8.306;2024-01-06T09:33:23;12.52;;;6.90;;
10315;SDS011;5203;48.976;8.306;2024-01-06T09:35:48;11.00;;;6.72;;
10315;SDS011;5203;48.976;8.306;2024-01-06T09:38:17;13.00;;;7.93;;
10315;SDS011;5203;48.976;8.306;2024-01-06T09:40:52;13.07;;;7.05;;
10315;SDS011;5203;48.976;8.306;2024-01-06T09:43:19;11.13;;;7.35;;
10315;SDS011;5203;48.976;8.306;2024-01-06T09:45:48;11.82;;;6.88;;
10315;SDS011;5203;48.976;8.306;2024-01-06T09:48:23;12.38;;;8.52;;
10315;SDS011;5203;48.976;8.306;2024-01-06T09:50:54;13.38;;;7.80;;
10315;SDS011;5203;48.976;8.306;2024-01-06T09:53:23;11.82;;;7.32;;
10315;SDS011;5203;48.976;8.306;2024-01-06T09:55:51;16.58;;;7.43;;
10315;SDS011;5203;48.976;8.306;2024-01-06T09:58:17;15.10;;;6.93;;
10315;SDS011;5203;48.976;8.306;2024-01-06T10:00:43;13.45;;;7.75;;
10315;SDS011;5203;48.976;8.306;2024-01-06T10:03:08;12.68;;;7.55;;
10315;SDS011;5203;48.976;8.306;2024-01-06T10:05:34;11.73;;;7.63;;
10315;SDS011;5203;48.976;8.306;2024-01-06T10:08:01;11.45;;;7.53;;
10315;SDS011;5203;48.976;8.306;2024-01-06T10:10:29;13.65;;;8.73;;
10315;SDS011;5203;48.976;8.306;2024-01-06T10:12:54;15.38;;;7.93;;
10315;SDS011;5203;48.976;8.306;2024-01-06T10:15:20;10.98;;;7.95;;
10315;SDS011;5203;48.976;8.306;2024-01-06T10:17:46;11.40;;;7.28;;
10315;SDS011;5203;48.976;8.306;2024-01-06T10:20:12;14.00;;;7.78;;
10315;SDS011;5203;48.976;8.306;2024-01-06T10:22:40;16.33;;;7.32;;
10315;SDS011;5203;48.976;8.306;2024-01-06T10:25:07;11.45;;;7.47;;
10315;SDS011;5203;48.976;8.306;2024-01-06T10:27:35;11.48;;;6.45;;
10315;SDS011;5203;48.976;8.306;2024-01-06T10:30:01;14.10;;;7.15;;
10315;SDS011;5203;48.976;8.306;2024-01-06T10:32:30;10.13;;;7.03;;
10315;SDS011;5203;48.976;8.306;2024-01-06T10:34:56;10.38;;;6.85;;
10315;SDS011;5203;48.976;8.306;2024-01-06T10:37:28;12.05;;;7.40;;
10315;SDS011;5203;48.976;8.306;2024-01-06T10:40:14;15.13;;;8.68;;
10315;SDS011;5203;48.976;8.306;2024-01-06T10:42:44;11.85;;;7.07;;
10315;SDS011;5203;48.976;8.306;2024-01-06T10:45:13;13.95;;;8.07;;
10315;SDS011;5203;48.976;8.306;2024-01-06T10:47:43;10.45;;;7.47;;
10315;SDS011;5203;48.976;8.306;2024-01-06T10:50:09;12.45;;;6.38;;
10315;SDS011;5203;48.976;8.306;2024-01-06T10:52:37;11.93;;;6.82;;
10315;SDS011;5203;48.976;8.306;2024-01-06T10:55:04;12.02;;;7.88;;
10315;SDS011;5203;48.976;8.306;2024-01-06T10:57:30;13.02;;;7.20;;
10315;SDS011;5203;48.976;8.306;2024-01-06T10:59:57;10.68;;;7.18;;
10315;SDS011;5203;48.976;8.306;2024-01-06T11:02:25;12.95;;;8.18;;
10315;SDS011;5203;48.976;8.306;2024-01-06T11:04:51;13.95;;;5.88;;
10315;SDS011;5203;48.976;8.306;2024-01-06T11:07:18;11.52;;;6.88;;
10315;SDS011;5203;48.976;8.306;2024-01-06T11:09:57;11.05;;;6.28;;
10315;SDS011;5203;48.976;8.306;2024-01-06T11:12:30;10.82;;;6.90;;
10315;SDS011;5203;48.976;8.306;2024-01-06T11:14:56;9.40;;;6.38;;
10315;SDS011;5203;48.976;8.306;2024-01-06T11:18:05;9.85;;;6.18;;
10315;SDS011;5203;48.976;8.306;2024-01-06T11:20:18;9.38;;;6.03;;
10315;SDS011;5203;48.976;8.306;2024-01-06T11:22:45;13.07;;;6.68;;
10315;SDS011;5203;48.976;8.306;2024-01-06T11:25:14;10.27;;;6.13;;
10315;SDS011;5203;48.976;8.306;2024-01-06T11:27:42;9.38;;;6.57;;
10315;SDS011;5203;48.976;8.306;2024-01-06T11:30:18;8.88;;;6.18;;
10315;SDS011;5203;48.976;8.306;2024-01-06T11:32:55;10.43;;;6.47;;
10315;SDS011;5203;48.976;8.306;2024-01-06T11:35:25;9.82;;;6.30;;
10315;SDS011;5203;48.976;8.306;2024-01-06T11:37:55;8.02;;;5.15;;
10315;SDS011;5203;48.976;8.306;2024-01-06T11:43:05;9.75;;;6.60;;
10315;SDS011;5203;48.976;8.306;2024-01-06T11:45:35;7.80;;;5.53;;
10315;SDS011;5203;48.976;8.306;2024-01-06T11:48:07;10.48;;;6.47;;
10315;SDS011;5203;48.976;8.306;2024-01-06T11:50:37;12.05;;;7.20;;
10315;SDS011;5203;48.976;8.306;2024-01-06T11:53:07;11.57;;;6.80;;
10315;SDS011;5203;48.976;8.306;2024-01-06T11:55:37;11.00;;;6.45;;
10315;SDS011;5203;48.976;8.306;2024-01-06T11:58:04;9.38;;;6.13;;
10315;SDS011;5203;48.976;8.306;2024-01-06T12:00:33;10.77;;;6.07;;
10315;SDS011;5203;48.976;8.306;2024-01-06T12:03:02;9.82;;;6.15;;
10315;SDS011;5203;48.976;8.306;2024-01-06T12:05:27;10.73;;;8.88;;
10315;SDS011;5203;48.976;8.306;2024-01-06T12:07:54;9.40;;;6.38;;
10315;SDS011;5203;48.976;8.306;2024-01-06T12:10:24;10.80;;;7.90;;
10315;SDS011;5203;48.976;8.306;2024-01-06T12:13:11;11.25;;;6.57;;
10315;SDS011;5203;48.976;8.306;2024-01-06T12:15:37;11.00;;;6.25;;
10315;SDS011;5203;48.976;8.306;2024-01-06T12:18:04;10.68;;;7.65;;
10315;SDS011;5203;48.976;8.306;2024-01-06T12:20:30;10.55;;;7.38;;
10315;SDS011;5203;48.976;8.306;2024-01-06T12:22:57;11.15;;;6.20;;
10315;SDS011;5203;48.976;8.306;2024-01-06T12:25:24;10.13;;;7.15;;
10315;SDS011;5203;48.976;8.306;2024-01-06T12:27:51;9.27;;;6.68;;
10315;SDS011;5203;48.976;8.306;2024-01-06T12:30:19;10.68;;;7.13;;
10315;SDS011;5203;48.976;8.306;2024-01-06T12:32:47;11.05;;;6.65;;
10315;SDS011;5203;48.976;8.306;2024-01-06T12:35:19;13.63;;;6.95;;
10315;SDS011;5203;48.976;8.306;2024-01-06T12:37:45;13.23;;;7.10;;
10315;SDS011;5203;48.976;8.306;2024-01-06T12:40:15;11.02;;;6.78;;
10315;SDS011;5203;48.976;8.306;2024-01-06T12:42:42;11.27;;;7.57;;
10315;SDS011;5203;48.976;8.306;2024-01-06T12:45:08;13.38;;;7.50;;
10315;SDS011;5203;48.976;8.306;2024-01-06T12:47:35;10.48;;;7.30;;
10315;SDS011;5203;48.976;8.306;2024-01-06T12:50:01;9.82;;;6.93;;
10315;SDS011;5203;48.976;8.306;2024-01-06T12:52:29;10.52;;;6.13;;
10315;SDS011;5203;48.976;8.306;2024-01-06T12:54:55;10.05;;;6.60;;
10315;SDS011;5203;48.976;8.306;2024-01-06T12:57:23;11.27;;;8.00;;
10315;SDS011;5203;48.976;8.306;2024-01-06T12:59:48;9.55;;;6.95;;
10315;SDS011;5203;48.976;8.306;2024-01-06T13:02:18;11.82;;;6.40;;
10315;SDS011;5203;48.976;8.306;2024-01-06T13:04:46;12.13;;;7.20;;
10315;SDS011;5203;48.976;8.306;2024-01-06T13:07:11;10.20;;;6.68;;
10315;SDS011;5203;48.976;8.306;2024-01-06T13:09:38;9.00;;;5.93;;
10315;SDS011;5203;48.976;8.306;2024-01-06T13:12:04;13.57;;;7.82;;
10315;SDS011;5203;48.976;8.306;2024-01-06T13:14:30;12.00;;;7.68;;
10315;SDS011;5203;48.976;8.306;2024-01-06T13:16:56;13.20;;;9.45;;
10315;SDS011;5203;48.976;8.306;2024-01-06T13:19:22;15.23;;;7.72;;
10315;SDS011;5203;48.976;8.306;2024-01-06T13:21:49;16.23;;;9.10;;
10315;SDS011;5203;48.976;8.306;2024-01-06T13:24:14;11.55;;;7.75;;
10315;SDS011;5203;48.976;8.306;2024-01-06T13:26:40;13.75;;;7.43;;
10315;SDS011;5203;48.976;8.306;2024-01-06T13:29:08;18.58;;;8.35;;
10315;SDS011;5203;48.976;8.306;2024-01-06T13:31:34;16.42;;;8.40;;
10315;SDS011;5203;48.976;8.306;2024-01-06T13:33:59;15.25;;;7.88;;
10315;SDS011;5203;48.976;8.306;2024-01-06T13:36:25;12.90;;;8.50;;
10315;SDS011;5203;48.976;8.306;2024-01-06T13:38:51;16.60;;;10.88;;
10315;SDS011;5203;48.976;8.306;2024-01-06T13:41:16;16.10;;;10.25;;
10315;SDS011;5203;48.976;8.306;2024-01-06T13:43:42;12.27;;;8.82;;
10315;SDS011;5203;48.976;8.306;2024-01-06T13:46:08;18.58;;;9.77;;
10315;SDS011;5203;48.976;8.306;2024-01-06T13:48:35;15.80;;;9.30;;
10315;SDS011;5203;48.976;8.306;2024-01-06T13:51:01;13.20;;;8.07;;
10315;SDS011;5203;48.976;8.306;2024-01-06T13:53:26;14.38;;;8.73;;
10315;SDS011;5203;48.976;8.306;2024-01-06T13:55:55;14.68;;;9.68;;
10315;SDS011;5203;48.976;8.306;2024-01-06T13:58:21;20.40;;;9.07;;
10315;SDS011;5203;48.976;8.306;2024-01-06T14:00:46;16.25;;;9.07;;
10315;SDS011;5203;48.976;8.306;2024-01-06T14:03:13;16.98;;;10.30;;
10315;SDS011;5203;48.976;8.306;2024-01-06T14:05:39;15.77;;;9.13;;
10315;SDS011;5203;48.976;8.306;2024-01-06T14:08:05;16.63;;;9.35;;
10315;SDS011;5203;48.976;8.306;2024-01-06T14:10:31;16.05;;;10.25;;
10315;SDS011;5203;48.976;8.306;2024-01-06T14:12:57;17.10;;;9.32;;
10315;SDS011;5203;48.976;8.306;2024-01-06T14:15:23;18.10;;;9.93;;
10315;SDS011;5203;48.976;8.306;2024-01-06T14:17:51;17.02;;;8.85;;
10315;SDS011;5203;48.976;8.306;2024-01-06T14:20:19;14.88;;;9.65;;
10315;SDS011;5203;48.976;8.306;2024-01-06T14:22:45;18.15;;;9.52;;
10315;SDS011;5203;48.976;8.306;2024-01-06T14:25:12;17.23;;;10.82;;
10315;SDS011;5203;48.976;8.306;2024-01-06T14:27:38;18.05;;;9.55;;
10315;SDS011;5203;48.976;8.306;2024-01-06T14:30:04;17.70;;;9.60;;
10315;SDS011;5203;48.976;8.306;2024-01-06T14:32:32;15.40;;;9.27;;
10315;SDS011;5203;48.976;8.306;2024-01-06T14:34:58;15.85;;;9.40;;
10315;SDS011;5203;48.976;8.306;2024-01-06T14:37:23;18.20;;;10.10;;
10315;SDS011;5203;48.976;8.306;2024-01-06T14:39:49;17.50;;;8.57;;
10315;SDS011;5203;48.976;8.306;2024-01-06T14:42:15;16.17;;;8.85;;
10315;SDS011;5203;48.976;8.306;2024-01-06T14:44:41;16.00;;;9.48;;
10315;SDS011;5203;48.976;8.306;2024-01-06T14:47:07;16.55;;;10.00;;
10315;SDS011;5203;48.976;8.306;2024-01-06T14:49:32;15.05;;;9.90;;
10315;SDS011;5203;48.976;8.306;2024-01-06T14:51:59;17.27;;;10.45;;
10315;SDS011;5203;48.976;8.306;2024-01-06T14:54:27;19.83;;;11.68;;
10315;SDS011;5203;48.976;8.306;2024-01-06T14:56:55;18.13;;;10.98;;